Flight Track Log - Related Links

Times and Time Zones

All times are in EST time to prevent confusion due to time zone crossing. See the ADR704 flight status page for this flight to view local times or setup timezone preferences in your user account.

Time Position Orientation Groundspeed Altitude Reporting Facility
EST Latitude Longitude Course Direction KTS MPH feet Rate Location/Type
Thu 08:38:00 AM 45.8322 14.9303 140° Southeast  Level Estimated
Thu 08:39:00 AM 45.7537 15.0241 140° Southeast  Level Estimated
Thu 08:40:00 AM 45.6751 15.1175 140° Southeast  Level Estimated
Thu 08:41:00 AM 45.5964 15.2108 140° Southeast  Level Estimated
Thu 08:42:00 AM 45.5177 15.3037 140° Southeast  Level Estimated
Thu 08:43:00 AM 45.4389 15.3964 140° Southeast  Level Estimated
Thu 08:44:00 AM 45.3600 15.4889 141° Southeast  Level Estimated
Thu 08:45:00 AM 45.2810 15.5810 141° Southeast  Level Estimated
Thu 08:46:00 AM 45.2019 15.6730 141° Southeast  Level Estimated
Thu 08:47:00 AM 45.1228 15.7646 141° Southeast  Level Estimated
Thu 08:48:00 AM 45.0436 15.8561 141° Southeast  Level Estimated
Thu 08:49:00 AM 44.9643 15.9472 141° Southeast  Level Estimated
Thu 08:50:00 AM 44.8850 16.0381 141° Southeast  Level Estimated
Thu 08:51:00 AM 44.8056 16.1288 141° Southeast  Level Estimated
Thu 08:52:00 AM 44.7261 16.2192 141° Southeast  Level Estimated
Thu 08:53:00 AM 44.6465 16.3094 141° Southeast  Level Estimated
Thu 08:54:00 AM 44.5669 16.3993 141° Southeast  Level Estimated
Thu 08:55:00 AM 44.4872 16.4890 141° Southeast  Level Estimated
Thu 08:56:00 AM 44.4074 16.5784 141° Southeast  Level Estimated
Thu 08:57:00 AM 44.3276 16.6676 141° Southeast  Level Estimated
Thu 08:58:00 AM 44.2477 16.7565 141° Southeast  Level Estimated
Thu 08:59:00 AM 44.1677 16.8452 141° Southeast  Level Estimated
Thu 09:00:00 AM 44.0877 16.9337 142° Southeast  Level Estimated
Thu 09:01:00 AM 44.0076 17.0219 142° Southeast  Level Estimated
Thu 09:02:00 AM 43.9274 17.1099 142° Southeast  Level Estimated
Thu 09:03:00 AM 43.8471 17.1976 142° Southeast  Level Estimated
Thu 09:04:00 AM 43.7668 17.2851 142° Southeast  Level Estimated
Thu 09:05:00 AM 43.6865 17.3724 142° Southeast  Level Estimated
Thu 09:06:00 AM 43.6060 17.4594 142° Southeast  Level Estimated
Thu 09:07:00 AM 43.5255 17.5462 142° Southeast  Level Estimated
Thu 09:08:00 AM 43.4449 17.6328 142° Southeast  Level Estimated
Thu 09:09:00 AM 43.3643 17.7191 142° Southeast  Level Estimated
Thu 09:10:00 AM 43.2836 17.8053 142° Southeast  Level Estimated
Thu 09:11:00 AM 43.2028 17.8911 142° Southeast  Level Estimated
Thu 09:12:00 AM 43.1220 17.9768 142° Southeast  Level Estimated
Thu 09:13:00 AM 43.0411 18.0622 142° Southeast  Level Estimated
Thu 09:14:00 AM 42.9601 18.1474 142° Southeast  Level Estimated
Thu 09:15:00 AM 42.8791 18.2324 142° Southeast  Level Estimated
Thu 09:16:00 AM 42.7980 18.3172 143° Southeast  Level Estimated
Thu 09:17:00 AM 42.7169 18.4017 143° Southeast  Level Estimated
Thu 09:18:00 AM 42.6356 18.4860 143° Southeast  Level Estimated
Thu 09:19:00 AM 42.5544 18.5701 143° Southeast  Level Estimated
Thu 09:20:00 AM 42.4730 18.6540 143° Southeast  Level Estimated
Thu 09:21:00 AM 42.3916 18.7377 143° Southeast  Level Estimated
Thu 09:22:00 AM 42.3102 18.8211 143° Southeast  Level Estimated
Thu 09:23:00 AM 42.2286 18.9044 143° Southeast  Level Estimated
Thu 09:24:00 AM 42.1471 18.9874 143° Southeast  Level Estimated
Thu 09:25:00 AM 42.0654 19.0702 143° Southeast  Level Estimated
Thu 09:26:00 AM 41.9837 19.1528 143° Southeast  Level Estimated
Thu 09:27:00 AM 41.9020 19.2351 143° Southeast  Level Estimated
Thu 09:28:00 AM 41.8202 19.3173 143° Southeast  Level Estimated
Thu 09:29:00 AM 41.7383 19.3993 143° Southeast  Level Estimated
Thu 09:30:00 AM 41.6564 19.4810 143° Southeast  Level Estimated
Thu 09:31:00 AM 41.5744 19.5626 143° Southeast  Level Estimated
Thu 09:32:00 AM 41.4923 19.6439 143° Southeast  Level Estimated
Thu 09:33:00 AM 41.4147 19.7206 143° Southeast  Level Estimated
Thu 09:34:00 AM 41.4147 19.7206 21° North  Level Estimated
Thu 09:35:00 AM 41.4147 19.7206 21° North  Level Estimated
Thu 09:36:00 AM 41.4147 19.7206 21° North  Level Estimated

Login

Don't have an account? Register now (free) for customized features, flight alerts, and more!